createdAt,value
2018-12-17T00:01:52.950Z,4.35
2018-12-17T00:04:23.698Z,4.34
2018-12-17T00:10:01.438Z,4.32
2018-12-17T00:12:30.622Z,4.34
2018-12-17T00:14:59.734Z,4.35
2018-12-17T00:17:28.841Z,4.37
2018-12-17T00:19:57.902Z,4.37
2018-12-17T00:22:27.022Z,4.40
2018-12-17T00:24:56.044Z,4.40
2018-12-17T00:27:25.111Z,4.39
2018-12-17T00:29:54.251Z,4.41
2018-12-17T00:32:23.236Z,4.40
2018-12-17T00:34:52.175Z,4.43
2018-12-17T00:37:21.226Z,4.46
2018-12-17T00:39:50.231Z,4.46
2018-12-17T00:42:19.210Z,4.45
2018-12-17T00:44:48.222Z,4.46
2018-12-17T00:47:17.123Z,4.50
2018-12-17T00:49:46.115Z,4.54
2018-12-17T00:52:15.102Z,4.52
2018-12-17T00:54:44.105Z,4.54
2018-12-17T00:57:13.174Z,4.53
2018-12-17T00:59:42.310Z,4.53
2018-12-17T01:02:11.449Z,4.53
2018-12-17T01:04:40.393Z,4.55
2018-12-17T01:07:09.450Z,4.56
2018-12-17T01:09:38.442Z,4.58
2018-12-17T01:12:07.434Z,4.55
2018-12-17T01:14:36.430Z,4.57
2018-12-17T01:17:05.408Z,4.57
2018-12-17T01:19:34.457Z,4.59
2018-12-17T01:22:03.396Z,4.59
2018-12-17T01:24:32.446Z,4.57
2018-12-17T01:27:01.303Z,4.61
2018-12-17T01:29:30.294Z,4.64
2018-12-17T01:31:59.304Z,4.67
2018-12-17T01:34:28.312Z,4.67
2018-12-17T01:36:57.355Z,4.67
2018-12-17T01:39:26.562Z,4.70
2018-12-17T01:41:55.927Z,4.70
2018-12-17T01:44:24.859Z,4.70
2018-12-17T01:46:54.013Z,4.69
2018-12-17T01:49:22.920Z,4.72
2018-12-17T01:51:51.836Z,4.70
2018-12-17T01:54:20.844Z,4.70
2018-12-17T01:56:49.891Z,4.71
2018-12-17T01:59:18.815Z,4.73
2018-12-17T02:01:47.832Z,4.74
2018-12-17T02:04:16.799Z,4.73
2018-12-17T02:06:45.785Z,4.70
2018-12-17T02:09:14.642Z,4.72
2018-12-17T02:11:43.846Z,4.71
2018-12-17T02:14:13.151Z,4.75
2018-12-17T02:16:42.374Z,4.75
2018-12-17T02:19:11.455Z,4.73
2018-12-17T02:21:40.436Z,4.74
2018-12-17T02:24:09.367Z,4.69
2018-12-17T02:26:38.352Z,4.71
2018-12-17T02:29:07.343Z,4.71
2018-12-17T02:31:36.753Z,4.74
2018-12-17T02:34:06.628Z,4.75
2018-12-17T02:36:35.766Z,4.78
2018-12-17T02:39:07.811Z,4.82
2018-12-17T02:41:38.739Z,4.81
2018-12-17T02:44:07.914Z,4.86
2018-12-17T02:46:36.722Z,4.87
2018-12-17T02:49:05.912Z,4.88
2018-12-17T02:51:36.684Z,4.84
2018-12-17T02:54:06.154Z,4.83
2018-12-17T02:56:35.253Z,4.84
2018-12-17T02:59:05.138Z,4.87
2018-12-17T03:01:34.182Z,4.87
2018-12-17T03:04:03.059Z,4.89
2018-12-17T03:06:32.139Z,4.91
2018-12-17T03:09:01.017Z,4.90
2018-12-17T03:11:31.885Z,4.93
2018-12-17T03:14:00.859Z,4.94
2018-12-17T03:16:30.094Z,4.94
2018-12-17T03:18:58.871Z,4.89
2018-12-17T03:21:28.003Z,4.91
2018-12-17T03:23:57.218Z,4.92
2018-12-17T03:26:26.156Z,4.89
2018-12-17T03:28:55.191Z,4.86
2018-12-17T03:31:24.341Z,4.88
2018-12-17T03:33:53.811Z,4.88
2018-12-17T03:36:22.721Z,4.89
2018-12-17T03:38:52.131Z,4.91
2018-12-17T03:41:21.026Z,4.91
2018-12-17T03:43:50.119Z,4.87
2018-12-17T03:46:19.075Z,4.86
2018-12-17T03:48:47.989Z,4.84
2018-12-17T03:51:17.058Z,4.87
2018-12-17T03:53:46.059Z,4.84
2018-12-17T03:56:15.116Z,4.81
2018-12-17T03:58:43.949Z,4.80
2018-12-17T04:01:13.044Z,4.76
2018-12-17T04:03:41.931Z,4.76
2018-12-17T04:06:11.008Z,4.76
2018-12-17T04:08:39.933Z,4.74
2018-12-17T04:11:09.147Z,4.74
2018-12-17T04:13:37.900Z,4.80
2018-12-17T04:16:07.024Z,4.82
2018-12-17T04:18:36.364Z,4.85
2018-12-17T04:21:05.568Z,4.86
2018-12-17T04:23:34.494Z,4.91
2018-12-17T04:26:05.331Z,4.92
2018-12-17T04:28:34.332Z,4.88
2018-12-17T04:31:03.464Z,4.85
2018-12-17T04:33:32.306Z,4.83
2018-12-17T04:36:01.716Z,4.78
2018-12-17T04:38:30.706Z,4.73
2018-12-17T04:40:59.587Z,4.77
2018-12-17T04:43:28.575Z,4.79
2018-12-17T04:45:57.627Z,4.77
2018-12-17T04:48:26.643Z,4.78
2018-12-17T04:50:55.552Z,4.79
2018-12-17T04:53:24.694Z,4.82
2018-12-17T04:55:53.610Z,4.84
2018-12-17T04:58:22.554Z,4.85
2018-12-17T05:00:51.594Z,4.85
2018-12-17T05:03:20.509Z,4.87
2018-12-17T05:05:49.499Z,4.89
2018-12-17T05:08:18.733Z,4.88
2018-12-17T05:10:47.576Z,4.86
2018-12-17T05:13:16.492Z,4.85
2018-12-17T05:15:45.639Z,4.81
2018-12-17T05:18:14.623Z,4.81
2018-12-17T05:20:43.542Z,4.79
2018-12-17T05:23:12.533Z,4.80
2018-12-17T05:25:41.522Z,4.82
2018-12-17T05:28:10.558Z,4.82
2018-12-17T05:30:39.510Z,4.83
2018-12-17T05:33:08.598Z,4.83
2018-12-17T05:35:37.405Z,4.80
2018-12-17T05:38:06.462Z,4.82
2018-12-17T05:40:35.626Z,4.84
2018-12-17T05:43:05.237Z,4.86
2018-12-17T05:45:34.312Z,4.92
2018-12-17T05:48:03.717Z,4.95
2018-12-17T05:50:32.661Z,4.95
2018-12-17T05:53:01.598Z,4.96
2018-12-17T05:55:30.658Z,4.95
2018-12-17T05:57:59.578Z,5.00
2018-12-17T06:00:28.702Z,5.01
2018-12-17T06:02:57.803Z,5.01
2018-12-17T06:05:27.078Z,5.01
2018-12-17T06:07:55.837Z,5.02
2018-12-17T06:10:24.783Z,5.02
2018-12-17T06:12:53.825Z,5.00
2018-12-17T06:15:22.814Z,4.99
2018-12-17T06:17:51.897Z,5.02
2018-12-17T06:20:21.335Z,5.00
2018-12-17T06:22:50.934Z,4.99
2018-12-17T06:25:19.628Z,5.00
2018-12-17T06:27:48.394Z,4.99
2018-12-17T06:30:17.463Z,4.96
2018-12-17T06:32:46.374Z,4.96
2018-12-17T06:35:15.491Z,4.96
2018-12-17T06:37:44.455Z,4.95
2018-12-17T06:40:13.430Z,4.94
2018-12-17T06:42:42.346Z,4.93
2018-12-17T06:45:11.347Z,4.97
2018-12-17T06:47:40.416Z,4.98
2018-12-17T06:50:09.470Z,5.00
2018-12-17T06:52:38.550Z,5.02
2018-12-17T06:55:07.545Z,5.03
2018-12-17T06:57:36.287Z,5.02
2018-12-17T07:00:06.558Z,5.08
2018-12-17T07:02:36.215Z,5.13
2018-12-17T07:05:06.216Z,5.10
2018-12-17T07:07:35.038Z,5.11
2018-12-17T07:10:04.511Z,5.12
2018-12-17T07:12:33.487Z,5.13
2018-12-17T07:15:02.387Z,5.19
2018-12-17T07:17:31.321Z,5.21
2018-12-17T07:20:00.380Z,5.24
2018-12-17T07:22:29.752Z,5.25
2018-12-17T07:24:58.595Z,5.24
2018-12-17T07:27:27.650Z,5.25
2018-12-17T07:29:56.666Z,5.22
2018-12-17T07:32:25.595Z,5.27
2018-12-17T07:34:54.643Z,5.26
2018-12-17T07:37:23.842Z,5.26
2018-12-17T07:39:52.923Z,5.31
2018-12-17T07:42:21.861Z,5.36
2018-12-17T07:44:50.900Z,5.41
2018-12-17T07:47:19.884Z,5.42
2018-12-17T07:49:49.971Z,5.41
2018-12-17T07:52:18.895Z,5.41
2018-12-17T07:54:47.718Z,5.40
2018-12-17T07:57:16.736Z,5.40
2018-12-17T07:59:45.710Z,5.43
2018-12-17T08:02:14.780Z,5.47
2018-12-17T08:04:43.918Z,5.50
2018-12-17T08:07:12.674Z,5.55
2018-12-17T08:09:41.679Z,5.56
2018-12-17T08:12:10.693Z,5.50
2018-12-17T08:14:39.812Z,5.52
2018-12-17T08:17:09.662Z,5.52
2018-12-17T08:19:38.579Z,5.54
2018-12-17T08:22:07.630Z,5.54
2018-12-17T08:24:36.626Z,5.56
2018-12-17T08:27:05.711Z,5.57
2018-12-17T08:29:34.598Z,5.55
2018-12-17T08:32:04.602Z,5.54
2018-12-17T08:34:33.463Z,5.55
2018-12-17T08:37:02.431Z,5.60
2018-12-17T08:39:31.502Z,5.62
2018-12-17T08:42:00.415Z,5.61
2018-12-17T08:44:29.554Z,5.62
2018-12-17T08:46:58.479Z,5.64
2018-12-17T08:49:27.411Z,5.68
2018-12-17T08:51:56.472Z,5.69
2018-12-17T08:54:25.401Z,5.74
2018-12-17T08:56:54.460Z,5.73
2018-12-17T08:59:24.286Z,5.82
2018-12-17T09:01:53.419Z,5.81
2018-12-17T09:04:22.365Z,5.82
2018-12-17T09:06:51.330Z,5.85
2018-12-17T09:09:20.274Z,5.90
2018-12-17T09:11:49.076Z,5.92
2018-12-17T09:14:17.939Z,5.93
2018-12-17T09:16:46.924Z,5.99
2018-12-17T09:19:15.995Z,5.95
2018-12-17T09:21:45.056Z,5.98
2018-12-17T09:24:14.056Z,5.95
2018-12-17T09:26:42.992Z,6.00
2018-12-17T09:29:12.027Z,6.04
2018-12-17T09:31:40.875Z,6.04
2018-12-17T09:34:10.809Z,6.08
2018-12-17T09:36:39.784Z,6.10
2018-12-17T09:39:08.864Z,6.13
2018-12-17T09:41:39.766Z,6.13
2018-12-17T09:44:08.615Z,6.15
2018-12-17T09:46:37.807Z,6.14
2018-12-17T09:49:06.592Z,6.19
2018-12-17T09:51:35.578Z,6.21
2018-12-17T09:54:05.322Z,6.20
2018-12-17T09:56:34.339Z,6.19
2018-12-17T09:59:04.238Z,6.22
2018-12-17T10:01:39.669Z,6.24
2018-12-17T10:04:08.607Z,6.35
2018-12-17T10:06:37.542Z,6.42
2018-12-17T10:09:07.142Z,6.46
2018-12-17T10:11:37.955Z,6.45
2018-12-17T10:14:07.197Z,6.44
2018-12-17T10:16:36.371Z,6.43
2018-12-17T10:19:05.315Z,6.47
2018-12-17T10:21:34.458Z,6.47
2018-12-17T10:24:03.783Z,6.46
2018-12-17T10:26:32.907Z,6.49
2018-12-17T10:29:01.828Z,6.53
2018-12-17T10:31:30.892Z,6.51
2018-12-17T10:33:59.879Z,6.55
2018-12-17T10:36:28.799Z,6.58
2018-12-17T10:38:58.028Z,6.68
2018-12-17T10:41:26.808Z,6.71
2018-12-17T10:43:57.694Z,6.78
2018-12-17T10:46:26.698Z,6.80
2018-12-17T10:48:55.620Z,6.80
2018-12-17T10:51:24.601Z,6.78
2018-12-17T10:53:53.617Z,6.83
2018-12-17T10:56:22.639Z,6.89
2018-12-17T10:58:51.570Z,6.95
2018-12-17T11:01:25.885Z,7.00
2018-12-17T11:04:01.058Z,7.05
2018-12-17T11:06:30.063Z,7.06
2018-12-17T11:08:58.987Z,7.07
2018-12-17T11:11:28.042Z,7.08
2018-12-17T11:13:56.992Z,7.11
2018-12-17T11:16:25.968Z,7.16
2018-12-17T11:18:54.954Z,7.20
2018-12-17T11:21:24.012Z,7.26
2018-12-17T11:23:52.863Z,7.29
2018-12-17T11:26:21.856Z,7.31
2018-12-17T11:28:50.930Z,7.38
2018-12-17T11:31:19.899Z,7.41
2018-12-17T11:33:48.828Z,7.46
2018-12-17T11:36:17.974Z,7.49
2018-12-17T11:38:46.904Z,7.55
2018-12-17T11:41:15.815Z,7.58
2018-12-17T11:43:44.875Z,7.63
2018-12-17T11:46:13.815Z,7.68
2018-12-17T11:48:43.003Z,7.70
2018-12-17T11:51:12.222Z,7.75
2018-12-17T11:53:41.150Z,7.78
2018-12-17T11:56:10.214Z,7.81
2018-12-17T11:58:39.147Z,7.82
2018-12-17T12:01:10.879Z,7.86
2018-12-17T12:03:42.486Z,7.90
2018-12-17T12:06:14.338Z,7.92
2018-12-17T12:08:42.090Z,7.95
2018-12-17T12:11:11.160Z,7.97
2018-12-17T12:13:39.943Z,8.01
2018-12-17T12:16:08.852Z,8.03
2018-12-17T12:18:37.858Z,8.05
2018-12-17T12:21:08.297Z,8.07
2018-12-17T12:23:37.402Z,8.10
2018-12-17T12:26:06.270Z,8.16
